createdAt,value
2022-10-13T00:05:01.555Z,6.51
2022-10-13T00:10:05.088Z,6.45
2022-10-13T00:15:09.427Z,6.41
2022-10-13T00:20:13.837Z,6.33
2022-10-13T00:25:16.713Z,6.28
2022-10-13T00:30:19.510Z,6.23
2022-10-13T00:35:23.565Z,6.13
2022-10-13T00:40:26.350Z,6.10
2022-10-13T00:45:30.763Z,6.11
2022-10-13T00:50:38.918Z,6.15
2022-10-13T00:55:44.732Z,6.15
2022-10-13T01:00:50.630Z,6.14
2022-10-13T01:05:58.948Z,6.11
2022-10-13T01:11:13.352Z,6.06
2022-10-13T01:16:26.429Z,6.01
2022-10-13T01:21:37.583Z,5.97
2022-10-13T01:27:15.882Z,5.91
2022-10-13T01:32:27.957Z,5.85
2022-10-13T01:37:34.764Z,5.81
2022-10-13T01:42:44.296Z,5.80
2022-10-13T01:47:49.326Z,5.86
2022-10-13T01:52:53.214Z,5.87
2022-10-13T01:57:56.347Z,5.86
2022-10-13T02:03:08.451Z,5.85
2022-10-13T02:08:18.314Z,5.87
2022-10-13T02:13:24.977Z,5.99
2022-10-13T02:18:32.354Z,6.07
2022-10-13T02:23:35.558Z,6.13
2022-10-13T02:28:39.220Z,6.15
2022-10-13T02:33:43.351Z,6.19
2022-10-13T02:38:46.053Z,6.25
2022-10-13T02:43:48.773Z,6.35
2022-10-13T02:48:53.416Z,6.44
2022-10-13T02:53:56.132Z,6.44
2022-10-13T02:58:58.830Z,6.50
2022-10-13T03:04:02.877Z,6.52
2022-10-13T03:09:05.816Z,6.62
2022-10-13T03:14:08.505Z,6.72
2022-10-13T03:19:12.796Z,6.82
2022-10-13T03:24:15.510Z,6.90
2022-10-13T03:29:19.192Z,7.00
2022-10-13T03:34:23.290Z,7.07
2022-10-13T03:39:26.275Z,7.12
2022-10-13T03:44:29.108Z,7.18
2022-10-13T03:49:33.312Z,7.23
2022-10-13T03:54:36.088Z,7.22
2022-10-13T03:59:41.121Z,7.18
2022-10-13T04:04:45.220Z,7.18
2022-10-13T04:09:47.946Z,7.24
2022-10-13T04:14:50.684Z,7.25
2022-10-13T04:19:54.790Z,7.23
2022-10-13T04:24:57.520Z,7.26
2022-10-13T04:30:00.305Z,7.33
2022-10-13T04:35:04.935Z,7.40
2022-10-13T04:40:08.564Z,7.47
2022-10-13T04:45:11.825Z,7.54
2022-10-13T04:50:15.874Z,7.61
2022-10-13T04:55:18.798Z,7.69
2022-10-13T05:00:21.771Z,7.75
2022-10-13T05:05:25.920Z,7.80
2022-10-13T05:10:32.583Z,7.82
2022-10-13T05:15:40.025Z,7.85
2022-10-13T05:20:44.188Z,7.82
2022-10-13T05:25:46.863Z,7.78
2022-10-13T05:30:49.542Z,7.73
2022-10-13T05:35:53.643Z,7.70
2022-10-13T05:40:56.356Z,7.65
2022-10-13T05:45:59.429Z,7.60
2022-10-13T05:51:07.500Z,7.60
2022-10-13T05:56:15.119Z,7.60
2022-10-13T06:01:22.717Z,7.57
2022-10-13T06:06:30.575Z,7.57
2022-10-13T06:11:34.251Z,7.61
2022-10-13T06:16:37.564Z,7.63
2022-10-13T06:21:41.608Z,7.70
2022-10-13T06:26:44.504Z,7.74
2022-10-13T06:31:47.780Z,7.79
2022-10-13T06:36:51.839Z,7.85
2022-10-13T06:41:55.362Z,7.90
2022-10-13T06:46:58.067Z,7.96
2022-10-13T06:52:02.159Z,8.03
2022-10-13T06:57:06.915Z,8.11
2022-10-13T07:02:10.242Z,8.21
2022-10-13T07:07:14.608Z,8.31
2022-10-13T07:12:18.043Z,8.38
2022-10-13T07:17:21.399Z,8.47
2022-10-13T07:22:25.865Z,8.55
2022-10-13T07:27:29.039Z,8.66
2022-10-13T07:32:32.432Z,8.81
2022-10-13T07:37:36.624Z,8.93
2022-10-13T07:42:39.340Z,9.07
2022-10-13T07:47:42.034Z,9.20
2022-10-13T07:52:46.112Z,9.35
2022-10-13T07:57:48.794Z,9.48
2022-10-13T08:02:51.823Z,9.64
2022-10-13T08:07:58.354Z,9.76
2022-10-13T08:13:01.446Z,9.89
2022-10-13T08:18:04.160Z,10.02
2022-10-13T08:23:08.240Z,10.15
2022-10-13T08:28:18.959Z,10.29
2022-10-13T08:33:21.997Z,10.44
2022-10-13T08:38:26.092Z,10.64
2022-10-13T08:43:29.249Z,10.85
2022-10-13T08:48:36.208Z,11.03
2022-10-13T08:53:43.909Z,11.19
2022-10-13T08:58:47.721Z,11.36
2022-10-13T09:03:54.396Z,11.49
2022-10-13T09:09:00.843Z,11.61
2022-10-13T09:14:06.117Z,11.76
2022-10-13T09:19:20.923Z,11.98
2022-10-13T09:24:27.827Z,12.29
2022-10-13T09:29:30.589Z,12.55
2022-10-13T09:34:34.350Z,12.73
2022-10-13T09:39:38.475Z,12.93
2022-10-13T09:44:41.807Z,13.16
2022-10-13T09:49:45.069Z,13.34
2022-10-13T09:54:51.118Z,13.52
2022-10-13T09:59:59.892Z,13.72
2022-10-13T10:05:07.560Z,13.88
2022-10-13T10:10:23.928Z,14.02
2022-10-13T10:15:34.946Z,14.19
2022-10-13T10:20:53.901Z,14.36
2022-10-13T10:26:01.828Z,14.49
2022-10-13T10:31:13.140Z,14.64
2022-10-13T10:36:20.598Z,14.73
2022-10-13T10:41:39.767Z,14.86
2022-10-13T10:46:47.616Z,14.92
2022-10-13T10:51:50.966Z,14.96
2022-10-13T10:56:59.468Z,15.05
2022-10-13T11:02:17.242Z,15.13
2022-10-13T11:07:53.198Z,15.18
2022-10-13T11:13:27.486Z,15.18
2022-10-13T11:19:09.410Z,15.25
2022-10-13T11:24:46.804Z,15.32
2022-10-13T11:29:56.556Z,15.31
2022-10-13T11:35:01.613Z,15.30
2022-10-13T11:40:17.554Z,15.37
2022-10-13T11:45:42.757Z,15.44
2022-10-13T11:50:54.964Z,15.52
2022-10-13T11:55:59.230Z,15.58
2022-10-13T12:01:06.420Z,15.70
2022-10-13T12:06:33.708Z,15.78
2022-10-13T12:11:38.795Z,15.86
2022-10-13T12:16:53.668Z,15.85
2022-10-13T12:21:58.625Z,15.90
2022-10-13T12:27:11.820Z,15.97
2022-10-13T12:32:24.439Z,15.98
2022-10-13T12:37:30.961Z,16.02
2022-10-13T12:42:36.974Z,16.06
2022-10-13T12:47:48.931Z,16.12
2022-10-13T12:52:52.755Z,16.15
2022-10-13T12:57:55.903Z,16.13
2022-10-13T13:03:01.663Z,16.13
2022-10-13T13:08:05.828Z,16.22
2022-10-13T13:13:15.955Z,16.24
2022-10-13T13:18:42.211Z,16.24
2022-10-13T13:23:51.041Z,16.26
2022-10-13T13:28:57.941Z,16.29
2022-10-13T13:34:02.059Z,16.28
2022-10-13T13:39:05.061Z,16.27
2022-10-13T13:44:07.861Z,16.27
2022-10-13T13:49:12.691Z,16.22
2022-10-13T13:54:15.393Z,16.21
2022-10-13T13:59:18.100Z,16.13
2022-10-13T14:04:22.532Z,16.07
2022-10-13T14:09:25.223Z,16.02
2022-10-13T14:14:28.057Z,16.03
2022-10-13T14:19:32.475Z,16.06
2022-10-13T14:24:35.440Z,16.08
2022-10-13T14:29:38.357Z,16.10
2022-10-13T14:34:42.453Z,16.13
2022-10-13T14:39:45.240Z,16.12
2022-10-13T14:44:48.085Z,16.10
2022-10-13T14:49:52.163Z,16.11
2022-10-13T14:54:54.873Z,16.12
2022-10-13T15:00:01.659Z,16.12
2022-10-13T15:05:07.579Z,16.15
2022-10-13T15:10:10.577Z,16.17
2022-10-13T15:15:13.754Z,16.17
2022-10-13T15:20:17.974Z,16.12
2022-10-13T15:25:20.668Z,16.08
2022-10-13T15:30:23.415Z,16.01
2022-10-13T15:35:30.590Z,15.94
2022-10-13T15:40:33.607Z,15.83
2022-10-13T15:45:36.850Z,15.75
2022-10-13T15:50:41.439Z,15.67
2022-10-13T15:55:44.202Z,15.58
2022-10-13T16:00:47.037Z,15.45
2022-10-13T16:05:51.182Z,15.35
2022-10-13T16:10:53.948Z,15.20
2022-10-13T16:16:00.567Z,15.07
2022-10-13T16:21:13.336Z,14.92
2022-10-13T16:26:20.272Z,14.77
2022-10-13T16:31:23.553Z,14.68
2022-10-13T16:36:27.750Z,14.56
2022-10-13T16:41:30.543Z,14.45
2022-10-13T16:46:34.191Z,14.33
2022-10-13T16:51:38.606Z,14.22
2022-10-13T16:56:41.430Z,14.14
2022-10-13T17:01:45.181Z,14.10
2022-10-13T17:06:49.353Z,14.07
2022-10-13T17:11:52.067Z,14.01
2022-10-13T17:16:57.710Z,13.98
2022-10-13T17:22:02.552Z,13.97
2022-10-13T17:27:05.430Z,13.94
2022-10-13T17:32:08.219Z,13.90
2022-10-13T17:37:12.463Z,13.90
2022-10-13T17:42:15.493Z,13.91
2022-10-13T17:47:18.613Z,13.93
2022-10-13T17:52:22.900Z,13.98
2022-10-13T17:57:25.692Z,14.01
2022-10-13T18:02:28.529Z,14.04
2022-10-13T18:07:32.742Z,14.04
2022-10-13T18:12:35.570Z,14.01
2022-10-13T18:17:38.351Z,13.99
2022-10-13T18:22:42.453Z,13.97
2022-10-13T18:27:45.188Z,13.94
2022-10-13T18:32:47.939Z,13.92
2022-10-13T18:37:52.855Z,13.92
2022-10-13T18:42:56.207Z,13.97
2022-10-13T18:47:58.909Z,14.01
2022-10-13T18:53:03.069Z,14.01
2022-10-13T18:58:05.789Z,13.98
2022-10-13T19:03:08.507Z,14.00
2022-10-13T19:08:12.622Z,14.01
2022-10-13T19:13:15.391Z,14.01
2022-10-13T19:18:18.115Z,14.02
2022-10-13T19:23:22.495Z,14.00
2022-10-13T19:28:25.603Z,13.99
2022-10-13T19:33:28.367Z,13.97
2022-10-13T19:38:32.499Z,13.98
2022-10-13T19:43:35.495Z,13.94
2022-10-13T19:48:38.302Z,13.91
2022-10-13T19:53:42.799Z,13.92
2022-10-13T19:58:45.617Z,13.93
2022-10-13T20:03:48.730Z,13.92
2022-10-13T20:08:52.824Z,13.90
2022-10-13T20:13:55.539Z,13.89
2022-10-13T20:19:00.767Z,13.87
2022-10-13T20:24:04.973Z,13.85
2022-10-13T20:29:07.794Z,13.84
2022-10-13T20:34:11.432Z,13.81
2022-10-13T20:39:15.606Z,13.76
2022-10-13T20:44:18.335Z,13.69
2022-10-13T20:49:21.033Z,13.66
2022-10-13T20:54:25.110Z,13.67
2022-10-13T20:59:28.025Z,13.59
2022-10-13T21:04:31.065Z,13.57
2022-10-13T21:09:35.446Z,13.57
2022-10-13T21:14:38.203Z,13.53
2022-10-13T21:19:40.897Z,13.48
2022-10-13T21:24:45.022Z,13.46
2022-10-13T21:29:47.719Z,13.40
2022-10-13T21:34:50.515Z,13.37
2022-10-13T21:39:54.812Z,13.34
2022-10-13T21:44:57.582Z,13.28
2022-10-13T21:50:00.684Z,13.21
2022-10-13T21:55:05.259Z,13.15
2022-10-13T22:00:10.048Z,13.09
2022-10-13T22:05:12.900Z,13.03
2022-10-13T22:10:17.466Z,12.99
2022-10-13T22:15:20.195Z,12.95
2022-10-13T22:20:22.880Z,12.91
2022-10-13T22:25:26.981Z,12.88
2022-10-13T22:30:29.814Z,12.82
2022-10-13T22:35:35.394Z,12.82
2022-10-13T22:40:39.476Z,12.77
2022-10-13T22:45:50.841Z,12.77
2022-10-13T22:50:53.553Z,12.76
2022-10-13T22:55:57.614Z,12.75
2022-10-13T23:01:06.092Z,12.75
2022-10-13T23:06:13.499Z,12.75
2022-10-13T23:11:18.630Z,12.68
2022-10-13T23:16:23.233Z,12.63
2022-10-13T23:21:29.246Z,12.61
2022-10-13T23:26:34.438Z,12.61
2022-10-13T23:31:37.171Z,12.62
2022-10-13T23:36:39.959Z,12.65
2022-10-13T23:41:44.238Z,12.64
2022-10-13T23:46:47.022Z,12.61
2022-10-13T23:51:49.770Z,12.58
2022-10-13T23:56:53.848Z,12.56
